sensor_id;sensor_type;location;lat;lon;timestamp;temperature;humidity
55026;DHT22;40925;45.666;18.994;2023-04-25T03:25:05;282.10;2278.40
55026;DHT22;40925;45.666;18.994;2023-04-25T03:27:31;281.80;2278.40
55026;DHT22;40925;45.666;18.994;2023-04-25T07:37:21;409.90;2355.20
55026;DHT22;40925;45.666;18.994;2023-04-25T07:39:47;409.80;2355.20
55026;DHT22;40925;45.666;18.994;2023-04-25T07:42:13;409.60;2355.20
55026;DHT22;40925;45.666;18.994;2023-04-25T07:44:38;409.70;2355.20
55026;DHT22;40925;45.666;18.994;2023-04-25T07:47:08;409.60;2355.20
55026;DHT22;40925;45.666;18.994;2023-04-25T07:52:02;410.20;2355.20
55026;DHT22;40925;45.666;18.994;2023-04-25T07:54:28;410.00;2355.20
55026;DHT22;40925;45.666;18.994;2023-04-25T07:56:54;410.20;2355.20
55026;DHT22;40925;45.666;18.994;2023-04-25T07:59:20;410.00;2355.20
55026;DHT22;40925;45.666;18.994;2023-04-25T08:01:46;410.10;2355.20
55026;DHT22;40925;45.666;18.994;2023-04-25T08:04:11;410.10;2355.20
55026;DHT22;40925;45.666;18.994;2023-04-25T08:06:37;410.10;2355.20
55026;DHT22;40925;45.666;18.994;2023-04-25T08:09:03;410.00;2355.20
55026;DHT22;40925;45.666;18.994;2023-04-25T08:11:29;410.10;2355.20
55026;DHT22;40925;45.666;18.994;2023-04-25T09:27:35;461.20;1945.60
55026;DHT22;40925;45.666;18.994;2023-04-25T09:30:01;461.00;1996.80
55026;DHT22;40925;45.666;18.994;2023-04-25T09:32:28;461.30;1971.20
55026;DHT22;40925;45.666;18.994;2023-04-25T09:34:55;461.10;1996.80
55026;DHT22;40925;45.666;18.994;2023-04-25T10:03:05;486.50;1868.80
55026;DHT22;40925;45.666;18.994;2023-04-25T10:05:32;461.30;1843.20
55026;DHT22;40925;45.666;18.994;2023-04-25T10:08:02;461.50;1817.60
55026;DHT22;40925;45.666;18.994;2023-04-25T10:10:30;461.60;1817.60
55026;DHT22;40925;45.666;18.994;2023-04-25T10:20:17;461.70;1792.00
55026;DHT22;40925;45.666;18.994;2023-04-25T10:22:45;461.50;1792.00
55026;DHT22;40925;45.666;18.994;2023-04-25T10:25:12;486.50;1766.40
55026;DHT22;40925;45.666;18.994;2023-04-25T10:30:57;486.50;1715.20
55026;DHT22;40925;45.666;18.994;2023-04-25T10:33:39;461.70;1715.20
55026;DHT22;40925;45.666;18.994;2023-04-25T10:36:22;461.40;1766.40
55026;DHT22;40925;45.666;18.994;2023-04-25T10:38:49;486.40;1792.00
55026;DHT22;40925;45.666;18.994;2023-04-25T10:41:22;461.70;1792.00
55026;DHT22;40925;45.666;18.994;2023-04-25T10:43:49;461.70;1766.40
55026;DHT22;40925;45.666;18.994;2023-04-25T10:46:21;486.40;1766.40
55026;DHT22;40925;45.666;18.994;2023-04-25T10:48:52;486.90;1664.00
55026;DHT22;40925;45.666;18.994;2023-04-25T10:56:28;461.60;1638.40
55026;DHT22;40925;45.666;18.994;2023-04-25T10:59:08;461.40;1664.00
55026;DHT22;40925;45.666;18.994;2023-04-25T11:09:03;487.20;1561.60
55026;DHT22;40925;45.666;18.994;2023-04-25T11:16:28;512.70;1459.20
55026;DHT22;40925;45.666;18.994;2023-04-25T11:18:57;512.80;1459.20
55026;DHT22;40925;45.666;18.994;2023-04-25T11:21:22;512.50;1459.20
55026;DHT22;40925;45.666;18.994;2023-04-25T11:23:48;512.40;1459.20
55026;DHT22;40925;45.666;18.994;2023-04-25T11:26:14;487.10;1459.20
55026;DHT22;40925;45.666;18.994;2023-04-25T11:28:59;512.00;1561.60
55026;DHT22;40925;45.666;18.994;2023-04-25T11:31:29;512.00;1766.40
55026;DHT22;40925;45.666;18.994;2023-04-25T11:33:57;512.60;1459.20
55026;DHT22;40925;45.666;18.994;2023-04-25T11:36:23;512.90;1459.20
55026;DHT22;40925;45.666;18.994;2023-04-25T11:38:50;512.90;1433.60
55026;DHT22;40925;45.666;18.994;2023-04-25T11:41:17;512.50;1459.20
55026;DHT22;40925;45.666;18.994;2023-04-25T12:35:50;538.20;1382.40
55026;DHT22;40925;45.666;18.994;2023-04-25T12:38:35;537.70;1408.00
55026;DHT22;40925;45.666;18.994;2023-04-25T12:43:27;538.20;1433.60
55026;DHT22;40925;45.666;18.994;2023-04-25T12:45:54;537.90;1408.00
55026;DHT22;40925;45.666;18.994;2023-04-25T12:48:20;537.90;1408.00
55026;DHT22;40925;45.666;18.994;2023-04-25T12:50:47;512.90;1382.40
55026;DHT22;40925;45.666;18.994;2023-04-25T12:53:20;537.90;1433.60
55026;DHT22;40925;45.666;18.994;2023-04-25T12:55:46;538.10;1408.00
55026;DHT22;40925;45.666;18.994;2023-04-25T12:58:18;538.00;1331.20
55026;DHT22;40925;45.666;18.994;2023-04-25T13:00:44;537.90;1382.40
55026;DHT22;40925;45.666;18.994;2023-04-25T13:03:10;537.90;1331.20
55026;DHT22;40925;45.666;18.994;2023-04-25T13:05:37;537.70;1356.80
55026;DHT22;40925;45.666;18.994;2023-04-25T13:08:03;537.70;1356.80
55026;DHT22;40925;45.666;18.994;2023-04-25T13:10:29;537.90;1331.20
55026;DHT22;40925;45.666;18.994;2023-04-25T13:12:55;537.90;1356.80
55026;DHT22;40925;45.666;18.994;2023-04-25T13:15:21;538.50;1331.20
55026;DHT22;40925;45.666;18.994;2023-04-25T13:17:47;537.90;1280.00
55026;DHT22;40925;45.666;18.994;2023-04-25T13:20:13;538.10;1356.80
55026;DHT22;40925;45.666;18.994;2023-04-25T13:22:40;537.90;1305.60
55026;DHT22;40925;45.666;18.994;2023-04-25T13:25:07;538.50;1305.60
55026;DHT22;40925;45.666;18.994;2023-04-25T13:27:34;563.20;1356.80
55026;DHT22;40925;45.666;18.994;2023-04-25T13:30:03;563.20;1356.80
55026;DHT22;40925;45.666;18.994;2023-04-25T13:32:33;538.40;1331.20
55026;DHT22;40925;45.666;18.994;2023-04-25T13:34:59;538.40;1280.00
55026;DHT22;40925;45.666;18.994;2023-04-25T13:37:26;538.50;1254.40
55026;DHT22;40925;45.666;18.994;2023-04-25T13:39:51;538.50;1305.60
55026;DHT22;40925;45.666;18.994;2023-04-25T13:42:17;563.40;1356.80
55026;DHT22;40925;45.666;18.994;2023-04-25T13:44:43;563.40;1356.80
55026;DHT22;40925;45.666;18.994;2023-04-25T13:47:09;563.20;1356.80
55026;DHT22;40925;45.666;18.994;2023-04-25T13:49:34;563.30;1331.20
55026;DHT22;40925;45.666;18.994;2023-04-25T13:52:00;563.50;1331.20
55026;DHT22;40925;45.666;18.994;2023-04-25T13:54:26;563.70;1331.20
55026;DHT22;40925;45.666;18.994;2023-04-25T13:56:52;563.70;1305.60
55026;DHT22;40925;45.666;18.994;2023-04-25T13:59:20;563.70;1280.00
55026;DHT22;40925;45.666;18.994;2023-04-25T14:01:47;563.70;1280.00
55026;DHT22;40925;45.666;18.994;2023-04-25T14:04:12;563.50;1280.00
55026;DHT22;40925;45.666;18.994;2023-04-25T14:06:38;563.50;1305.60
55026;DHT22;40925;45.666;18.994;2023-04-25T14:09:04;563.60;1254.40
55026;DHT22;40925;45.666;18.994;2023-04-25T14:11:31;563.70;1254.40
55026;DHT22;40925;45.666;18.994;2023-04-25T14:13:57;564.00;1254.40
55026;DHT22;40925;45.666;18.994;2023-04-25T14:16:23;563.70;1254.40
55026;DHT22;40925;45.666;18.994;2023-04-25T14:18:49;563.70;1280.00
55026;DHT22;40925;45.666;18.994;2023-04-25T14:21:15;563.70;1254.40
55026;DHT22;40925;45.666;18.994;2023-04-25T14:23:40;563.40;1280.00
55026;DHT22;40925;45.666;18.994;2023-04-25T14:26:06;563.20;1280.00
55026;DHT22;40925;45.666;18.994;2023-04-25T14:28:32;563.40;1280.00
55026;DHT22;40925;45.666;18.994;2023-04-25T14:30:58;563.40;1305.60
55026;DHT22;40925;45.666;18.994;2023-04-25T14:33:24;563.50;1254.40
55026;DHT22;40925;45.666;18.994;2023-04-25T14:35:50;563.20;1280.00
55026;DHT22;40925;45.666;18.994;2023-04-25T14:38:16;563.50;1305.60
55026;DHT22;40925;45.666;18.994;2023-04-25T14:40:41;563.50;1280.00
55026;DHT22;40925;45.666;18.994;2023-04-25T14:43:07;563.90;1280.00
55026;DHT22;40925;45.666;18.994;2023-04-25T14:45:33;563.90;1254.40
55026;DHT22;40925;45.666;18.994;2023-04-25T14:47:59;563.90;1254.40
55026;DHT22;40925;45.666;18.994;2023-04-25T14:50:25;564.00;1228.80
55026;DHT22;40925;45.666;18.994;2023-04-25T14:52:50;588.90;1203.20
55026;DHT22;40925;45.666;18.994;2023-04-25T14:55:18;588.80;1203.20
55026;DHT22;40925;45.666;18.994;2023-04-25T14:57:43;564.10;1203.20
55026;DHT22;40925;45.666;18.994;2023-04-25T15:00:11;563.90;1254.40
55026;DHT22;40925;45.666;18.994;2023-04-25T15:02:40;564.00;1228.80
55026;DHT22;40925;45.666;18.994;2023-04-25T15:05:06;563.90;1203.20
55026;DHT22;40925;45.666;18.994;2023-04-25T15:07:32;563.70;1228.80
55026;DHT22;40925;45.666;18.994;2023-04-25T15:10:00;563.60;1203.20
55026;DHT22;40925;45.666;18.994;2023-04-25T15:12:26;563.40;1177.60
55026;DHT22;40925;45.666;18.994;2023-04-25T15:14:53;563.50;1203.20
55026;DHT22;40925;45.666;18.994;2023-04-25T15:17:19;563.50;1177.60
55026;DHT22;40925;45.666;18.994;2023-04-25T15:19:45;563.50;1203.20
55026;DHT22;40925;45.666;18.994;2023-04-25T15:22:11;563.30;1203.20
55026;DHT22;40925;45.666;18.994;2023-04-25T15:24:37;563.50;1203.20
55026;DHT22;40925;45.666;18.994;2023-04-25T15:27:02;563.20;1203.20
55026;DHT22;40925;45.666;18.994;2023-04-25T15:29:30;538.40;1177.60
55026;DHT22;40925;45.666;18.994;2023-04-25T15:31:56;563.20;1228.80
55026;DHT22;40925;45.666;18.994;2023-04-25T15:34:22;538.40;1203.20
55026;DHT22;40925;45.666;18.994;2023-04-25T15:36:47;538.40;1203.20
55026;DHT22;40925;45.666;18.994;2023-04-25T15:39:13;538.40;1203.20
55026;DHT22;40925;45.666;18.994;2023-04-25T15:41:39;563.20;1228.80
55026;DHT22;40925;45.666;18.994;2023-04-25T15:44:36;563.20;1203.20
55026;DHT22;40925;45.666;18.994;2023-04-25T15:47:02;563.30;1228.80
55026;DHT22;40925;45.666;18.994;2023-04-25T15:49:27;563.20;1228.80
55026;DHT22;40925;45.666;18.994;2023-04-25T15:51:53;538.50;1203.20
55026;DHT22;40925;45.666;18.994;2023-04-25T15:54:20;538.50;1203.20
55026;DHT22;40925;45.666;18.994;2023-04-25T15:56:46;538.50;1203.20
55026;DHT22;40925;45.666;18.994;2023-04-25T15:59:28;538.50;1203.20
55026;DHT22;40925;45.666;18.994;2023-04-25T16:01:53;538.40;1203.20
55026;DHT22;40925;45.666;18.994;2023-04-25T16:04:19;538.40;1228.80
55026;DHT22;40925;45.666;18.994;2023-04-25T16:06:45;538.10;1228.80
55026;DHT22;40925;45.666;18.994;2023-04-25T16:09:10;538.10;1228.80
55026;DHT22;40925;45.666;18.994;2023-04-25T16:11:36;538.10;1254.40
55026;DHT22;40925;45.666;18.994;2023-04-25T16:14:02;538.00;1254.40
55026;DHT22;40925;45.666;18.994;2023-04-25T16:16:27;537.90;1280.00
55026;DHT22;40925;45.666;18.994;2023-04-25T16:18:53;537.80;1254.40
55026;DHT22;40925;45.666;18.994;2023-04-25T16:21:19;537.70;1280.00
55026;DHT22;40925;45.666;18.994;2023-04-25T16:26:11;512.80;1228.80
55026;DHT22;40925;45.666;18.994;2023-04-25T16:28:37;512.80;1254.40
55026;DHT22;40925;45.666;18.994;2023-04-25T16:31:21;512.60;1280.00
55026;DHT22;40925;45.666;18.994;2023-04-25T16:33:47;512.20;1305.60
55026;DHT22;40925;45.666;18.994;2023-04-25T16:36:13;512.10;1305.60
55026;DHT22;40925;45.666;18.994;2023-04-25T16:38:38;512.00;1280.00
55026;DHT22;40925;45.666;18.994;2023-04-25T16:41:05;487.10;1305.60
55026;DHT22;40925;45.666;18.994;2023-04-25T16:43:31;486.90;1331.20
55026;DHT22;40925;45.666;18.994;2023-04-25T16:45:58;486.90;1356.80
55026;DHT22;40925;45.666;18.994;2023-04-25T16:48:24;486.90;1382.40
55026;DHT22;40925;45.666;18.994;2023-04-25T16:50:51;486.90;1408.00
55026;DHT22;40925;45.666;18.994;2023-04-25T16:53:17;486.70;1408.00
55026;DHT22;40925;45.666;18.994;2023-04-25T16:55:43;486.60;1433.60
55026;DHT22;40925;45.666;18.994;2023-04-25T16:58:09;486.40;1459.20
55026;DHT22;40925;45.666;18.994;2023-04-25T17:00:39;461.70;1459.20
55026;DHT22;40925;45.666;18.994;2023-04-25T17:03:06;461.70;1459.20
55026;DHT22;40925;45.666;18.994;2023-04-25T17:05:32;486.50;1459.20
55026;DHT22;40925;45.666;18.994;2023-04-25T17:07:59;461.30;1484.80
55026;DHT22;40925;45.666;18.994;2023-04-25T17:10:25;461.00;1510.40
55026;DHT22;40925;45.666;18.994;2023-04-25T17:12:51;461.30;1510.40
55026;DHT22;40925;45.666;18.994;2023-04-25T17:15:17;461.20;1510.40
55026;DHT22;40925;45.666;18.994;2023-04-25T17:17:42;461.20;1536.00
55026;DHT22;40925;45.666;18.994;2023-04-25T17:29:57;461.00;1587.20
55026;DHT22;40925;45.666;18.994;2023-04-25T17:32:23;436.10;1894.40
55026;DHT22;40925;45.666;18.994;2023-04-25T17:34:49;436.00;1612.80
55026;DHT22;40925;45.666;18.994;2023-04-25T17:37:15;435.80;1638.40
55026;DHT22;40925;45.666;18.994;2023-04-25T17:39:43;435.80;1638.40
55026;DHT22;40925;45.666;18.994;2023-04-25T17:42:09;435.80;1638.40
55026;DHT22;40925;45.666;18.994;2023-04-25T17:44:35;435.70;1638.40
55026;DHT22;40925;45.666;18.994;2023-04-25T17:47:00;435.80;1638.40
55026;DHT22;40925;45.666;18.994;2023-04-25T17:49:27;435.70;1638.40
55026;DHT22;40925;45.666;18.994;2023-04-25T17:51:52;435.70;1664.00
55026;DHT22;40925;45.666;18.994;2023-04-25T17:56:47;435.90;1664.00
55026;DHT22;40925;45.666;18.994;2023-04-25T17:59:13;435.70;1689.60
55026;DHT22;40925;45.666;18.994;2023-04-25T18:02:11;435.30;1715.20
55026;DHT22;40925;45.666;18.994;2023-04-25T18:07:03;410.50;1715.20
55026;DHT22;40925;45.666;18.994;2023-04-25T18:09:30;410.40;1715.20
55026;DHT22;40925;45.666;18.994;2023-04-25T18:11:57;410.30;1740.80
55026;DHT22;40925;45.666;18.994;2023-04-25T18:14:23;410.30;1740.80
55026;DHT22;40925;45.666;18.994;2023-04-25T18:16:50;410.20;1766.40
55026;DHT22;40925;45.666;18.994;2023-04-25T18:19:19;410.10;1766.40
55026;DHT22;40925;45.666;18.994;2023-04-25T18:21:53;410.10;1766.40
55026;DHT22;40925;45.666;18.994;2023-04-25T18:24:20;409.90;1766.40
55026;DHT22;40925;45.666;18.994;2023-04-25T18:26:47;410.10;1792.00
55026;DHT22;40925;45.666;18.994;2023-04-25T18:29:14;410.20;1766.40
55026;DHT22;40925;45.666;18.994;2023-04-25T18:31:41;409.80;1792.00
55026;DHT22;40925;45.666;18.994;2023-04-25T18:34:07;409.80;1792.00
55026;DHT22;40925;45.666;18.994;2023-04-25T18:36:34;409.80;1792.00
55026;DHT22;40925;45.666;18.994;2023-04-25T18:39:01;409.70;1792.00
55026;DHT22;40925;45.666;18.994;2023-04-25T18:41:30;409.70;1817.60
55026;DHT22;40925;45.666;18.994;2023-04-25T18:46:35;384.70;1945.60
55026;DHT22;40925;45.666;18.994;2023-04-25T18:49:02;384.50;1894.40
55026;DHT22;40925;45.666;18.994;2023-04-25T18:51:28;384.50;1920.00
55026;DHT22;40925;45.666;18.994;2023-04-25T18:53:56;384.30;1945.60
55026;DHT22;40925;45.666;18.994;2023-04-25T18:56:23;384.10;1996.80
55026;DHT22;40925;45.666;18.994;2023-04-25T18:58:50;359.30;2022.40
55026;DHT22;40925;45.666;18.994;2023-04-25T19:01:18;359.30;2048.00
55026;DHT22;40925;45.666;18.994;2023-04-25T19:03:43;359.20;2099.20
55026;DHT22;40925;45.666;18.994;2023-04-25T19:06:09;359.20;2073.60
55026;DHT22;40925;45.666;18.994;2023-04-25T19:08:35;359.30;2073.60
55026;DHT22;40925;45.666;18.994;2023-04-25T19:11:01;359.30;2048.00
55026;DHT22;40925;45.666;18.994;2023-04-25T19:13:29;359.30;2073.60
55026;DHT22;40925;45.666;18.994;2023-04-25T19:15:55;359.30;2073.60
55026;DHT22;40925;45.666;18.994;2023-04-25T19:18:22;359.30;2073.60
55026;DHT22;40925;45.666;18.994;2023-04-25T19:20:49;359.30;2073.60
55026;DHT22;40925;45.666;18.994;2023-04-25T19:23:15;359.30;2099.20
55026;DHT22;40925;45.666;18.994;2023-04-25T19:25:41;359.30;2176.00
55026;DHT22;40925;45.666;18.994;2023-04-25T19:28:07;359.20;2227.20
55026;DHT22;40925;45.666;18.994;2023-04-25T21:06:41;333.20;2329.60
55026;DHT22;40925;45.666;18.994;2023-04-25T23:26:49;282.50;2278.40
55026;DHT22;40925;45.666;18.994;2023-04-25T23:29:15;282.40;2278.40
55026;DHT22;40925;45.666;18.994;2023-04-25T23:31:41;282.30;2278.40
55026;DHT22;40925;45.666;18.994;2023-04-25T23:34:07;282.30;2278.40
55026;DHT22;40925;45.666;18.994;2023-04-25T23:36:32;282.30;2278.40
55026;DHT22;40925;45.666;18.994;2023-04-25T23:38:58;282.30;2278.40
55026;DHT22;40925;45.666;18.994;2023-04-25T23:41:26;282.20;2278.40
55026;DHT22;40925;45.666;18.994;2023-04-25T23:43:52;282.20;2278.40
55026;DHT22;40925;45.666;18.994;2023-04-25T23:46:17;282.20;2278.40
55026;DHT22;40925;45.666;18.994;2023-04-25T23:49:02;282.20;2278.40
55026;DHT22;40925;45.666;18.994;2023-04-25T23:51:29;282.20;2278.40
55026;DHT22;40925;45.666;18.994;2023-04-25T23:53:57;282.10;2278.40
55026;DHT22;40925;45.666;18.994;2023-04-25T23:56:22;282.20;2278.40
55026;DHT22;40925;45.666;18.994;2023-04-25T23:58:49;282.10;2278.40
